RYR8AZ EGKK-EICK
Flight info
| Callsign | RYR8AZ |
|---|---|
| Flight time | 1h 19m |
| Altitude | 32000 |
| Route | NOVMA L620 SAM N19 ADKIK DCT PEWBI DCT MOPAT DCT ERTER ERTER1R |
| Aircraft | B738/M-SDE2E3FGHIRWXY/LB1 |
Departure
| Time | 2026-04-15 05:18 |
|---|---|
| Airport | London Gatwick Airport (EGKK) |
Arrival
| Time | 2026-04-15 06:37 |
|---|---|
| Airport | Cork International Airport (EICK) |
| Time | Latitude | Longitude | Altitude | Speed | Heading |
|---|---|---|---|---|---|
| 2026-04-15 05:02 | 51.15445 | -0.16424 | 203 ft | 0 kts | 78° |
| 2026-04-15 05:04 | 51.15403 | -0.16409 | 212 ft | 0 kts | 78° |
| 2026-04-15 05:12 | 51.15399 | -0.16442 | 212 ft | 4 kts | 78° |
| 2026-04-15 05:12 | 51.15394 | -0.16480 | 213 ft | 4 kts | 103° |
| 2026-04-15 05:12 | 51.15407 | -0.16501 | 210 ft | 4 kts | 168° |
| 2026-04-15 05:13 | 51.15428 | -0.16508 | 213 ft | 4 kts | 168° |
| 2026-04-15 05:13 | 51.15447 | -0.16515 | 212 ft | 0 kts | 168° |
| 2026-04-15 05:15 | 51.15442 | -0.16513 | 216 ft | 6 kts | 165° |
| 2026-04-15 05:15 | 51.15368 | -0.16488 | 208 ft | 12 kts | 168° |
| 2026-04-15 05:16 | 51.15298 | -0.16515 | 206 ft | 12 kts | 242° |
| 2026-04-15 05:16 | 51.15291 | -0.16595 | 203 ft | 11 kts | 253° |
| 2026-04-15 05:16 | 51.15272 | -0.16637 | 210 ft | 0 kts | 208° |
| 2026-04-15 05:16 | 51.15271 | -0.16638 | 210 ft | 2 kts | 208° |
| 2026-04-15 05:17 | 51.15198 | -0.16631 | 202 ft | 19 kts | 168° |
| 2026-04-15 05:17 | 51.15127 | -0.16756 | 211 ft | 16 kts | 257° |
| 2026-04-15 05:17 | 51.15082 | -0.17061 | 208 ft | 57 kts | 257° |
| 2026-04-15 05:17 | 51.14946 | -0.18052 | 207 ft | 124 kts | 257° |
| 2026-04-15 05:18 | 51.14731 | -0.19670 | 316 ft | 168 kts | 258° |
| 2026-04-15 05:18 | 51.14523 | -0.21565 | 972 ft | 176 kts | 257° |
| 2026-04-15 05:18 | 51.14293 | -0.23461 | 1902 ft | 171 kts | 258° |
| 2026-04-15 05:18 | 51.14054 | -0.25424 | 2403 ft | 194 kts | 255° |
| 2026-04-15 05:19 | 51.13714 | -0.27633 | 2646 ft | 218 kts | 254° |
| 2026-04-15 05:19 | 51.13339 | -0.30093 | 2935 ft | 242 kts | 255° |
| 2026-04-15 05:19 | 51.12949 | -0.32765 | 3617 ft | 247 kts | 255° |
| 2026-04-15 05:19 | 51.12568 | -0.35439 | 3947 ft | 249 kts | 255° |
| 2026-04-15 05:20 | 51.12187 | -0.38139 | 3959 ft | 250 kts | 254° |
| 2026-04-15 05:20 | 51.11804 | -0.40829 | 3975 ft | 249 kts | 254° |
| 2026-04-15 05:20 | 51.11365 | -0.43492 | 3979 ft | 248 kts | 246° |
| 2026-04-15 05:20 | 51.10623 | -0.45940 | 3971 ft | 246 kts | 239° |
| 2026-04-15 05:21 | 51.09837 | -0.48348 | 3996 ft | 244 kts | 241° |
| 2026-04-15 05:21 | 51.09079 | -0.50773 | 3983 ft | 245 kts | 242° |
| 2026-04-15 05:21 | 51.08311 | -0.53206 | 3982 ft | 246 kts | 240° |
| 2026-04-15 05:21 | 51.07527 | -0.55629 | 3996 ft | 246 kts | 240° |
| 2026-04-15 05:22 | 51.06763 | -0.58075 | 3966 ft | 247 kts | 242° |
| 2026-04-15 05:22 | 51.06000 | -0.60533 | 3954 ft | 248 kts | 242° |
| 2026-04-15 05:22 | 51.05284 | -0.63024 | 3948 ft | 249 kts | 250° |
| 2026-04-15 05:22 | 51.04921 | -0.65711 | 3956 ft | 250 kts | 257° |
| 2026-04-15 05:23 | 51.04600 | -0.68382 | 3959 ft | 248 kts | 256° |
| 2026-04-15 05:23 | 51.04258 | -0.71076 | 3958 ft | 249 kts | 255° |
| 2026-04-15 05:23 | 51.03908 | -0.73772 | 3951 ft | 249 kts | 255° |
| 2026-04-15 05:23 | 51.03554 | -0.76466 | 3978 ft | 250 kts | 255° |
| 2026-04-15 05:24 | 51.03187 | -0.79203 | 4449 ft | 256 kts | 255° |
| 2026-04-15 05:24 | 51.02819 | -0.81943 | 5431 ft | 254 kts | 254° |
| 2026-04-15 05:24 | 51.02445 | -0.84703 | 6280 ft | 258 kts | 254° |
| 2026-04-15 05:24 | 51.02066 | -0.87515 | 7049 ft | 262 kts | 253° |
| 2026-04-15 05:25 | 51.01679 | -0.90350 | 7894 ft | 263 kts | 253° |
| 2026-04-15 05:25 | 51.01283 | -0.93192 | 8760 ft | 264 kts | 252° |
| 2026-04-15 05:25 | 51.00858 | -0.96043 | 9647 ft | 265 kts | 252° |
| 2026-04-15 05:25 | 51.00432 | -0.98891 | 10417 ft | 269 kts | 252° |
| 2026-04-15 05:26 | 51.00000 | -1.01917 | 10649 ft | 293 kts | 253° |
| 2026-04-15 05:26 | 50.99546 | -1.05198 | 10880 ft | 315 kts | 254° |
| 2026-04-15 05:26 | 50.99073 | -1.08656 | 11409 ft | 324 kts | 254° |
| 2026-04-15 05:26 | 50.98595 | -1.12161 | 12144 ft | 327 kts | 255° |
| 2026-04-15 05:27 | 50.98110 | -1.15705 | 12896 ft | 329 kts | 255° |
| 2026-04-15 05:27 | 50.97618 | -1.19275 | 13647 ft | 333 kts | 255° |
| 2026-04-15 05:27 | 50.97119 | -1.22883 | 14326 ft | 336 kts | 255° |
| 2026-04-15 05:27 | 50.96614 | -1.26526 | 14949 ft | 340 kts | 255° |
| 2026-04-15 05:28 | 50.96100 | -1.30205 | 15563 ft | 344 kts | 255° |
| 2026-04-15 05:28 | 50.95578 | -1.33930 | 16180 ft | 348 kts | 255° |
| 2026-04-15 05:28 | 50.95070 | -1.37704 | 16796 ft | 352 kts | 256° |
| 2026-04-15 05:28 | 50.94581 | -1.41534 | 17415 ft | 356 kts | 256° |
| 2026-04-15 05:29 | 50.94095 | -1.45396 | 18094 ft | 358 kts | 255° |
| 2026-04-15 05:29 | 50.93607 | -1.49272 | 18686 ft | 360 kts | 255° |
| 2026-04-15 05:29 | 50.93111 | -1.53186 | 19211 ft | 363 kts | 255° |
| 2026-04-15 05:29 | 50.92617 | -1.57058 | 19752 ft | 366 kts | 255° |
| 2026-04-15 05:30 | 50.92100 | -1.61085 | 20308 ft | 368 kts | 255° |
| 2026-04-15 05:30 | 50.91587 | -1.65069 | 20842 ft | 370 kts | 255° |
| 2026-04-15 05:30 | 50.91067 | -1.69085 | 21358 ft | 373 kts | 255° |
| 2026-04-15 05:30 | 50.90544 | -1.73119 | 21877 ft | 376 kts | 255° |
| 2026-04-15 05:31 | 50.90021 | -1.77138 | 22381 ft | 378 kts | 255° |
| 2026-04-15 05:31 | 50.89661 | -1.79896 | 22710 ft | 380 kts | 255° |
| 2026-04-15 05:31 | 50.88949 | -1.85344 | 23356 ft | 384 kts | 255° |
| 2026-04-15 05:31 | 50.88405 | -1.89497 | 23827 ft | 386 kts | 255° |
| 2026-04-15 05:32 | 50.87859 | -1.93651 | 24319 ft | 385 kts | 254° |
| 2026-04-15 05:32 | 50.87310 | -1.97811 | 24740 ft | 387 kts | 254° |
| 2026-04-15 05:32 | 50.86936 | -2.00631 | 24989 ft | 389 kts | 254° |
| 2026-04-15 05:32 | 50.86379 | -2.04836 | 25348 ft | 392 kts | 254° |
| 2026-04-15 05:33 | 50.85820 | -2.09063 | 25714 ft | 394 kts | 254° |
| 2026-04-15 05:33 | 50.85263 | -2.13262 | 26080 ft | 396 kts | 254° |
| 2026-04-15 05:33 | 50.84694 | -2.17540 | 26436 ft | 398 kts | 254° |
| 2026-04-15 05:33 | 50.84122 | -2.21834 | 26790 ft | 400 kts | 254° |
| 2026-04-15 05:34 | 50.83545 | -2.26152 | 27145 ft | 402 kts | 254° |
| 2026-04-15 05:34 | 50.82963 | -2.30491 | 27561 ft | 402 kts | 254° |
| 2026-04-15 05:34 | 50.82383 | -2.34810 | 28118 ft | 400 kts | 254° |
| 2026-04-15 05:34 | 50.81801 | -2.39076 | 28794 ft | 393 kts | 252° |
| 2026-04-15 05:35 | 50.81266 | -2.43304 | 29283 ft | 392 kts | 253° |
| 2026-04-15 05:35 | 50.80691 | -2.47519 | 29717 ft | 391 kts | 253° |
| 2026-04-15 05:35 | 50.80341 | -2.51803 | 30150 ft | 397 kts | 263° |
| 2026-04-15 05:35 | 50.80468 | -2.56180 | 30568 ft | 400 kts | 270° |
| 2026-04-15 05:36 | 50.80960 | -2.60536 | 30954 ft | 406 kts | 279° |
| 2026-04-15 05:36 | 50.81838 | -2.64808 | 31280 ft | 410 kts | 282° |
| 2026-04-15 05:36 | 50.82783 | -2.69058 | 31600 ft | 410 kts | 282° |
| 2026-04-15 05:36 | 50.83741 | -2.73300 | 31944 ft | 409 kts | 282° |
| 2026-04-15 05:37 | 50.85660 | -2.81875 | 32066 ft | 415 kts | 282° |
| 2026-04-15 05:37 | 50.87835 | -2.90329 | 32009 ft | 408 kts | 279° |
| 2026-04-15 05:38 | 50.89563 | -2.98848 | 32014 ft | 406 kts | 278° |
| 2026-04-15 05:38 | 50.91273 | -3.07421 | 32013 ft | 409 kts | 279° |
| 2026-04-15 05:39 | 50.93063 | -3.15956 | 32003 ft | 411 kts | 280° |
| 2026-04-15 05:39 | 50.94877 | -3.24451 | 31996 ft | 412 kts | 280° |
| 2026-04-15 05:40 | 50.96719 | -3.33070 | 32006 ft | 412 kts | 279° |
| 2026-04-15 05:40 | 50.98552 | -3.41687 | 31997 ft | 412 kts | 279° |
| 2026-04-15 05:41 | 51.00376 | -3.50302 | 31986 ft | 412 kts | 279° |
| 2026-04-15 05:41 | 51.02190 | -3.58911 | 31976 ft | 410 kts | 279° |
| 2026-04-15 05:42 | 51.03992 | -3.67499 | 31981 ft | 409 kts | 279° |
| 2026-04-15 05:42 | 51.05783 | -3.76079 | 31978 ft | 409 kts | 279° |
| 2026-04-15 05:43 | 51.07568 | -3.84667 | 31982 ft | 410 kts | 278° |
| 2026-04-15 05:43 | 51.09350 | -3.93271 | 31967 ft | 409 kts | 278° |
| 2026-04-15 05:44 | 51.11123 | -4.01870 | 31965 ft | 409 kts | 278° |
| 2026-04-15 05:44 | 51.12886 | -4.10458 | 31961 ft | 408 kts | 278° |
| 2026-04-15 05:45 | 51.14643 | -4.19052 | 31955 ft | 408 kts | 277° |
| 2026-04-15 05:45 | 51.16378 | -4.27581 | 32011 ft | 407 kts | 277° |
| 2026-04-15 05:46 | 51.18119 | -4.36177 | 31957 ft | 408 kts | 277° |
| 2026-04-15 05:46 | 51.19857 | -4.44795 | 31944 ft | 408 kts | 277° |
| 2026-04-15 05:47 | 51.21590 | -4.53420 | 31944 ft | 408 kts | 277° |
| 2026-04-15 05:47 | 51.23314 | -4.62041 | 31930 ft | 408 kts | 277° |
| 2026-04-15 05:48 | 51.25031 | -4.70667 | 31939 ft | 408 kts | 277° |
| 2026-04-15 05:48 | 51.26745 | -4.79316 | 31974 ft | 409 kts | 277° |
| 2026-04-15 05:49 | 51.28458 | -4.88004 | 31925 ft | 410 kts | 277° |
| 2026-04-15 05:49 | 51.30170 | -4.96707 | 31919 ft | 411 kts | 277° |
| 2026-04-15 05:50 | 51.31737 | -5.05430 | 31910 ft | 402 kts | 270° |
| 2026-04-15 05:51 | 51.33001 | -5.18572 | 31920 ft | 398 kts | 268° |
| 2026-04-15 05:51 | 51.33800 | -5.27337 | 31910 ft | 398 kts | 268° |
| 2026-04-15 05:52 | 51.34623 | -5.36094 | 31895 ft | 398 kts | 268° |
| 2026-04-15 05:52 | 51.35455 | -5.44858 | 31894 ft | 398 kts | 268° |
| 2026-04-15 05:53 | 51.36280 | -5.53569 | 31885 ft | 398 kts | 268° |
| 2026-04-15 05:53 | 51.37103 | -5.62330 | 31874 ft | 398 kts | 268° |
| 2026-04-15 05:54 | 51.37920 | -5.71103 | 31874 ft | 398 kts | 268° |
| 2026-04-15 05:54 | 51.38730 | -5.79870 | 31883 ft | 399 kts | 268° |
| 2026-04-15 05:55 | 51.39535 | -5.88675 | 31866 ft | 399 kts | 268° |
| 2026-04-15 05:55 | 51.40335 | -5.97470 | 31845 ft | 399 kts | 268° |
| 2026-04-15 05:56 | 51.41125 | -6.06219 | 31830 ft | 390 kts | 268° |
| 2026-04-15 05:56 | 51.41512 | -6.10435 | 31833 ft | 376 kts | 268° |
| 2026-04-15 05:56 | 51.41884 | -6.14543 | 31628 ft | 371 kts | 267° |
| 2026-04-15 05:56 | 51.42245 | -6.18607 | 31361 ft | 365 kts | 267° |
| 2026-04-15 05:57 | 51.42597 | -6.22614 | 31004 ft | 362 kts | 267° |
| 2026-04-15 05:57 | 51.42943 | -6.26579 | 30733 ft | 359 kts | 266° |
| 2026-04-15 05:57 | 51.43286 | -6.30515 | 30345 ft | 354 kts | 266° |
| 2026-04-15 05:57 | 51.43625 | -6.34406 | 30007 ft | 351 kts | 266° |
| 2026-04-15 05:58 | 51.43959 | -6.38269 | 29621 ft | 349 kts | 266° |
| 2026-04-15 05:58 | 51.44290 | -6.42103 | 29236 ft | 346 kts | 266° |
| 2026-04-15 05:58 | 51.44617 | -6.45899 | 28867 ft | 342 kts | 266° |
| 2026-04-15 05:58 | 51.44936 | -6.49606 | 28530 ft | 339 kts | 266° |
| 2026-04-15 05:59 | 51.45259 | -6.53375 | 28185 ft | 335 kts | 265° |
| 2026-04-15 05:59 | 51.45569 | -6.57010 | 27825 ft | 332 kts | 265° |
| 2026-04-15 05:59 | 51.45879 | -6.60665 | 27498 ft | 329 kts | 265° |
| 2026-04-15 05:59 | 51.46185 | -6.64278 | 27161 ft | 326 kts | 265° |
| 2026-04-15 06:00 | 51.46486 | -6.67860 | 26835 ft | 323 kts | 265° |
| 2026-04-15 06:00 | 51.46785 | -6.71427 | 26516 ft | 322 kts | 265° |
| 2026-04-15 06:00 | 51.47081 | -6.74983 | 26234 ft | 322 kts | 264° |
| 2026-04-15 06:00 | 51.47375 | -6.78574 | 25882 ft | 329 kts | 264° |
| 2026-04-15 06:01 | 51.47673 | -6.82266 | 25541 ft | 339 kts | 264° |
| 2026-04-15 06:01 | 51.47983 | -6.86032 | 25175 ft | 340 kts | 265° |
| 2026-04-15 06:01 | 51.48297 | -6.89778 | 24822 ft | 338 kts | 265° |
| 2026-04-15 06:01 | 51.48607 | -6.93499 | 24465 ft | 335 kts | 265° |
| 2026-04-15 06:02 | 51.48912 | -6.97191 | 24133 ft | 333 kts | 264° |
| 2026-04-15 06:02 | 51.49213 | -7.00870 | 23791 ft | 331 kts | 264° |
| 2026-04-15 06:02 | 51.49510 | -7.04532 | 23453 ft | 330 kts | 264° |
| 2026-04-15 06:02 | 51.49804 | -7.08177 | 23058 ft | 329 kts | 264° |
| 2026-04-15 06:03 | 51.50085 | -7.11811 | 22531 ft | 327 kts | 264° |
| 2026-04-15 06:03 | 51.50338 | -7.15400 | 22159 ft | 320 kts | 264° |
| 2026-04-15 06:03 | 51.50579 | -7.18914 | 21786 ft | 314 kts | 263° |
| 2026-04-15 06:03 | 51.50813 | -7.22358 | 21464 ft | 308 kts | 263° |
| 2026-04-15 06:04 | 51.51042 | -7.25741 | 21190 ft | 302 kts | 262° |
| 2026-04-15 06:04 | 51.51266 | -7.29065 | 20866 ft | 298 kts | 262° |
| 2026-04-15 06:04 | 51.51485 | -7.32352 | 20554 ft | 295 kts | 262° |
| 2026-04-15 06:04 | 51.51700 | -7.35616 | 20260 ft | 295 kts | 263° |
| 2026-04-15 06:05 | 51.51914 | -7.38952 | 19983 ft | 307 kts | 263° |
| 2026-04-15 06:05 | 51.52133 | -7.42424 | 19672 ft | 317 kts | 264° |
| 2026-04-15 06:05 | 51.52366 | -7.45927 | 19324 ft | 313 kts | 264° |
| 2026-04-15 06:05 | 51.52597 | -7.49316 | 19008 ft | 306 kts | 264° |
| 2026-04-15 06:06 | 51.52828 | -7.52720 | 18677 ft | 300 kts | 264° |
| 2026-04-15 06:06 | 51.53045 | -7.55966 | 18385 ft | 293 kts | 264° |
| 2026-04-15 06:06 | 51.53257 | -7.59202 | 18100 ft | 290 kts | 264° |
| 2026-04-15 06:06 | 51.53464 | -7.62431 | 17829 ft | 293 kts | 264° |
| 2026-04-15 06:07 | 51.53670 | -7.65752 | 17586 ft | 304 kts | 264° |
| 2026-04-15 06:07 | 51.53884 | -7.69167 | 17330 ft | 310 kts | 265° |
| 2026-04-15 06:07 | 51.54106 | -7.72610 | 17132 ft | 309 kts | 265° |
| 2026-04-15 06:07 | 51.54329 | -7.76016 | 16836 ft | 306 kts | 264° |
| 2026-04-15 06:08 | 51.54547 | -7.79391 | 16563 ft | 302 kts | 264° |
| 2026-04-15 06:08 | 51.54760 | -7.82732 | 16255 ft | 299 kts | 264° |
| 2026-04-15 06:08 | 51.54969 | -7.86048 | 15953 ft | 297 kts | 264° |
| 2026-04-15 06:08 | 51.55174 | -7.89341 | 15662 ft | 295 kts | 264° |
| 2026-04-15 06:09 | 51.55394 | -7.92605 | 15348 ft | 296 kts | 269° |
| 2026-04-15 06:09 | 51.56137 | -7.95796 | 15012 ft | 319 kts | 294° |
| 2026-04-15 06:09 | 51.57750 | -7.98366 | 14680 ft | 340 kts | 321° |
| 2026-04-15 06:09 | 51.60022 | -7.99580 | 14469 ft | 351 kts | 353° |
| 2026-04-15 06:10 | 51.62429 | -7.99034 | 14184 ft | 352 kts | 24° |
| 2026-04-15 06:10 | 51.64475 | -7.96971 | 13922 ft | 345 kts | 42° |
| 2026-04-15 06:10 | 51.66310 | -7.94504 | 13636 ft | 343 kts | 43° |
| 2026-04-15 06:10 | 51.68160 | -7.92101 | 13300 ft | 340 kts | 40° |
| 2026-04-15 06:11 | 51.70034 | -7.89806 | 12981 ft | 337 kts | 39° |
| 2026-04-15 06:11 | 51.71947 | -7.87673 | 12650 ft | 334 kts | 27° |
| 2026-04-15 06:11 | 51.74149 | -7.86728 | 12412 ft | 323 kts | 357° |
| 2026-04-15 06:11 | 51.76305 | -7.87247 | 12130 ft | 308 kts | 333° |
| 2026-04-15 06:12 | 51.78142 | -7.88769 | 11882 ft | 296 kts | 314° |
| 2026-04-15 06:12 | 51.79606 | -7.91025 | 11621 ft | 292 kts | 303° |
| 2026-04-15 06:12 | 51.80996 | -7.93550 | 11333 ft | 301 kts | 302° |
| 2026-04-15 06:12 | 51.82353 | -7.96067 | 11025 ft | 299 kts | 302° |
| 2026-04-15 06:13 | 51.83713 | -7.98587 | 10693 ft | 294 kts | 302° |
| 2026-04-15 06:13 | 51.85047 | -8.01049 | 10391 ft | 289 kts | 302° |
| 2026-04-15 06:13 | 51.86367 | -8.03479 | 10005 ft | 287 kts | 302° |
| 2026-04-15 06:13 | 51.87687 | -8.05914 | 9629 ft | 287 kts | 302° |
| 2026-04-15 06:14 | 51.88997 | -8.08322 | 9310 ft | 283 kts | 303° |
| 2026-04-15 06:14 | 51.90302 | -8.10672 | 9044 ft | 278 kts | 303° |
| 2026-04-15 06:14 | 51.91568 | -8.13033 | 8687 ft | 278 kts | 302° |
| 2026-04-15 06:14 | 51.92834 | -8.15380 | 8464 ft | 276 kts | 303° |
| 2026-04-15 06:15 | 51.94099 | -8.17715 | 8175 ft | 275 kts | 303° |
| 2026-04-15 06:15 | 51.95360 | -8.20037 | 7911 ft | 274 kts | 303° |
| 2026-04-15 06:15 | 51.96616 | -8.22353 | 7640 ft | 273 kts | 303° |
| 2026-04-15 06:15 | 51.97864 | -8.24654 | 7377 ft | 271 kts | 303° |
| 2026-04-15 06:16 | 51.99102 | -8.26936 | 7130 ft | 268 kts | 303° |
| 2026-04-15 06:16 | 52.00312 | -8.29221 | 6837 ft | 268 kts | 305° |
| 2026-04-15 06:16 | 52.01562 | -8.31446 | 6596 ft | 266 kts | 304° |
| 2026-04-15 06:16 | 52.02775 | -8.33699 | 6334 ft | 265 kts | 303° |
| 2026-04-15 06:17 | 52.03984 | -8.35956 | 6091 ft | 264 kts | 304° |
| 2026-04-15 06:17 | 52.05164 | -8.38173 | 5952 ft | 255 kts | 304° |
| 2026-04-15 06:17 | 52.06317 | -8.40308 | 5822 ft | 250 kts | 304° |
| 2026-04-15 06:17 | 52.07469 | -8.42424 | 5762 ft | 250 kts | 305° |
| 2026-04-15 06:18 | 52.08742 | -8.44377 | 5598 ft | 262 kts | 327° |
| 2026-04-15 06:18 | 52.10483 | -8.45158 | 5826 ft | 266 kts | 350° |
| 2026-04-15 06:18 | 52.12351 | -8.44777 | 5704 ft | 273 kts | 22° |
| 2026-04-15 06:18 | 52.13869 | -8.42991 | 5683 ft | 268 kts | 55° |
| 2026-04-15 06:19 | 52.14662 | -8.40321 | 5707 ft | 261 kts | 84° |
| 2026-04-15 06:19 | 52.14647 | -8.37443 | 5688 ft | 251 kts | 111° |
| 2026-04-15 06:19 | 52.13994 | -8.34890 | 5698 ft | 240 kts | 133° |
| 2026-04-15 06:19 | 52.12962 | -8.32788 | 5699 ft | 237 kts | 139° |
| 2026-04-15 06:20 | 52.11866 | -8.30775 | 5694 ft | 238 kts | 139° |
| 2026-04-15 06:20 | 52.10785 | -8.28793 | 5701 ft | 238 kts | 139° |
| 2026-04-15 06:20 | 52.09691 | -8.26772 | 5700 ft | 238 kts | 139° |
| 2026-04-15 06:20 | 52.08525 | -8.24929 | 5695 ft | 228 kts | 156° |
| 2026-04-15 06:21 | 52.07087 | -8.24090 | 5713 ft | 216 kts | 177° |
| 2026-04-15 06:21 | 52.05618 | -8.24127 | 5709 ft | 209 kts | 194° |
| 2026-04-15 06:21 | 52.04279 | -8.24985 | 5709 ft | 207 kts | 213° |
| 2026-04-15 06:21 | 52.03225 | -8.26569 | 5694 ft | 208 kts | 232° |
| 2026-04-15 06:22 | 52.02594 | -8.28695 | 5724 ft | 212 kts | 249° |
| 2026-04-15 06:22 | 52.02473 | -8.31139 | 5743 ft | 225 kts | 271° |
| 2026-04-15 06:22 | 52.02720 | -8.32850 | 5706 ft | 235 kts | 281° |
| 2026-04-15 06:22 | 52.03528 | -8.35175 | 5731 ft | 245 kts | 302° |
| 2026-04-15 06:23 | 52.04658 | -8.37274 | 5719 ft | 249 kts | 304° |
| 2026-04-15 06:23 | 52.05807 | -8.39387 | 5713 ft | 250 kts | 304° |
| 2026-04-15 06:23 | 52.06955 | -8.41513 | 5714 ft | 250 kts | 304° |
| 2026-04-15 06:23 | 52.08121 | -8.43616 | 5691 ft | 253 kts | 311° |
| 2026-04-15 06:24 | 52.09695 | -8.44982 | 5707 ft | 264 kts | 342° |
| 2026-04-15 06:24 | 52.11556 | -8.45155 | 5640 ft | 275 kts | 355° |
| 2026-04-15 06:24 | 52.13381 | -8.45949 | 5340 ft | 270 kts | 319° |
| 2026-04-15 06:24 | 52.14516 | -8.48176 | 5096 ft | 250 kts | 283° |
| 2026-04-15 06:25 | 52.14583 | -8.50852 | 4843 ft | 233 kts | 246° |
| 2026-04-15 06:25 | 52.13885 | -8.53171 | 4645 ft | 224 kts | 238° |
| 2026-04-15 06:25 | 52.13049 | -8.55149 | 4469 ft | 201 kts | 223° |
| 2026-04-15 06:25 | 52.12030 | -8.56516 | 4363 ft | 181 kts | 212° |
| 2026-04-15 06:26 | 52.10933 | -8.57304 | 4155 ft | 168 kts | 198° |
| 2026-04-15 06:26 | 52.09824 | -8.57840 | 3899 ft | 166 kts | 199° |
| 2026-04-15 06:26 | 52.08759 | -8.58365 | 3643 ft | 154 kts | 199° |
| 2026-04-15 06:26 | 52.07778 | -8.58843 | 3387 ft | 144 kts | 199° |
| 2026-04-15 06:27 | 52.06843 | -8.59297 | 3326 ft | 140 kts | 200° |
| 2026-04-15 06:27 | 52.05890 | -8.59758 | 3350 ft | 145 kts | 199° |
| 2026-04-15 06:27 | 52.04923 | -8.60224 | 3353 ft | 145 kts | 199° |
| 2026-04-15 06:27 | 52.03941 | -8.60599 | 3329 ft | 150 kts | 184° |
| 2026-04-15 06:28 | 52.02901 | -8.60254 | 3376 ft | 156 kts | 169° |
| 2026-04-15 06:28 | 52.01872 | -8.59670 | 3378 ft | 157 kts | 168° |
| 2026-04-15 06:28 | 52.00859 | -8.59086 | 3408 ft | 149 kts | 167° |
| 2026-04-15 06:28 | 51.99907 | -8.58488 | 3380 ft | 144 kts | 168° |
| 2026-04-15 06:29 | 51.98958 | -8.57910 | 3254 ft | 147 kts | 168° |
| 2026-04-15 06:29 | 51.98012 | -8.57341 | 3102 ft | 144 kts | 168° |
| 2026-04-15 06:29 | 51.97068 | -8.56885 | 2995 ft | 137 kts | 184° |
| 2026-04-15 06:29 | 51.96151 | -8.57150 | 2992 ft | 135 kts | 204° |
| 2026-04-15 06:30 | 51.95417 | -8.58037 | 2997 ft | 134 kts | 229° |
| 2026-04-15 06:30 | 51.95034 | -8.59420 | 2990 ft | 139 kts | 254° |
| 2026-04-15 06:30 | 51.95143 | -8.61027 | 3004 ft | 152 kts | 283° |
| 2026-04-15 06:30 | 51.95825 | -8.62415 | 2987 ft | 169 kts | 319° |
| 2026-04-15 06:31 | 51.96947 | -8.63125 | 3019 ft | 176 kts | 333° |
| 2026-04-15 06:31 | 51.98119 | -8.63772 | 3001 ft | 178 kts | 333° |
| 2026-04-15 06:31 | 51.99300 | -8.64413 | 2991 ft | 178 kts | 333° |
| 2026-04-15 06:31 | 52.00487 | -8.65008 | 2987 ft | 182 kts | 345° |
| 2026-04-15 06:32 | 52.01716 | -8.64541 | 2975 ft | 186 kts | 39° |
| 2026-04-15 06:32 | 52.02419 | -8.62824 | 3006 ft | 185 kts | 82° |
| 2026-04-15 06:32 | 52.02341 | -8.60872 | 3001 ft | 167 kts | 122° |
| 2026-04-15 06:32 | 52.01596 | -8.59660 | 3014 ft | 146 kts | 166° |
| 2026-04-15 06:33 | 52.00644 | -8.59004 | 3003 ft | 151 kts | 165° |
| 2026-04-15 06:33 | 51.99687 | -8.58369 | 3000 ft | 150 kts | 167° |
| 2026-04-15 06:33 | 51.98698 | -8.57758 | 2998 ft | 150 kts | 168° |
| 2026-04-15 06:33 | 51.97719 | -8.57213 | 3005 ft | 148 kts | 169° |
| 2026-04-15 06:34 | 51.96772 | -8.56624 | 2916 ft | 144 kts | 168° |
| 2026-04-15 06:34 | 51.95832 | -8.56052 | 2776 ft | 145 kts | 168° |
| 2026-04-15 06:34 | 51.94894 | -8.55494 | 2586 ft | 143 kts | 168° |
| 2026-04-15 06:34 | 51.93961 | -8.54939 | 2402 ft | 143 kts | 168° |
| 2026-04-15 06:35 | 51.93026 | -8.54388 | 2209 ft | 143 kts | 169° |
| 2026-04-15 06:35 | 51.92098 | -8.53839 | 2010 ft | 141 kts | 169° |
| 2026-04-15 06:35 | 51.91182 | -8.53296 | 1818 ft | 140 kts | 168° |
| 2026-04-15 06:35 | 51.90275 | -8.52757 | 1648 ft | 139 kts | 168° |
| 2026-04-15 06:36 | 51.89343 | -8.52206 | 1453 ft | 145 kts | 168° |
| 2026-04-15 06:36 | 51.88406 | -8.51653 | 1227 ft | 141 kts | 168° |
| 2026-04-15 06:36 | 51.87475 | -8.51124 | 1026 ft | 147 kts | 160° |
| 2026-04-15 06:36 | 51.86504 | -8.50545 | 830 ft | 150 kts | 170° |
| 2026-04-15 06:37 | 51.85557 | -8.49932 | 650 ft | 143 kts | 164° |
| 2026-04-15 06:37 | 51.84622 | -8.49405 | 505 ft | 140 kts | 161° |
| 2026-04-15 06:37 | 51.84043 | -8.49062 | 503 ft | 42 kts | 160° |
| 2026-04-15 06:37 | 51.83995 | -8.49034 | 503 ft | 8 kts | 17° |
| 2026-04-15 06:38 | 51.84075 | -8.49082 | 503 ft | 14 kts | 343° |
| 2026-04-15 06:38 | 51.84167 | -8.49135 | 503 ft | 14 kts | 340° |